Time;durP1;ratioP1;P1;durP2;ratioP2;P2;SDS_P1;SDS_P2;PMS_P1;PMS_P2;Temp;Humidity;BMP_temperature;BMP_pressure;BME280_temperature;BME280_humidity;BME280_pressure;Samples;Min_cycle;Max_cycle;Signal;HPM_P1;HPM_P2
2021/09/21 00:00:33;;;;;;;27.58;12.58;;;;;;;12.79;80.65;100906.30;1762083;80;21036;-57
2021/09/21 00:05:32;;;;;;;7.25;3.52;;;;;;;12.70;81.23;100910.23;1776311;80;21090;-56
2021/09/21 00:08:00;;;;;;;5.33;2.40;;;;;;;12.69;81.08;100911.19;1767252;80;21159;-56
2021/09/21 00:13:19;;;;;;;7.30;3.45;;;;;;;12.69;80.69;100913.41;1720968;82;21121;-56
2021/09/21 00:21:53;;;;;;;10.93;2.42;;;;;;;12.64;80.25;100923.95;1757501;80;21031;-56
2021/09/21 00:24:22;;;;;;;6.58;2.55;;;;;;;12.58;80.16;100931.34;1762998;80;21039;-57
2021/09/21 00:26:49;;;;;;;6.67;2.30;;;;;;;12.53;80.04;100926.62;1757133;78;21083;-56
2021/09/21 00:29:16;;;;;;;6.22;2.83;;;;;;;12.51;80.67;100927.16;1716642;82;21102;-56
2021/09/21 00:31:49;;;;;;;6.53;2.60;;;;;;;12.49;81.62;100937.11;1774846;80;21059;-58
2021/09/21 00:34:15;;;;;;;4.20;2.42;;;;;;;12.44;82.68;100929.21;1764216;80;21118;-56
2021/09/21 00:42:11;;;;;;;4.22;2.00;;;;;;;12.16;81.54;100933.45;1773237;80;22297;-57
2021/09/21 00:44:38;;;;;;;5.15;2.15;;;;;;;11.98;81.59;100941.72;1783072;80;21052;-56
2021/09/21 00:47:06;;;;;;;7.80;3.52;;;;;;;11.84;81.94;100946.28;1728952;81;21094;-57
2021/09/21 00:52:37;;;;;;;6.12;3.20;;;;;;;11.60;83.23;100942.19;1731037;81;21110;-57
2021/09/21 00:55:17;;;;;;;6.10;3.52;;;;;;;11.53;83.82;100948.72;1738760;80;21252;-56
2021/09/21 00:57:45;;;;;;;9.10;5.25;;;;;;;11.48;84.19;100942.16;1737544;81;21587;-56
2021/09/21 01:03:23;;;;;;;130.55;64.82;;;;;;;11.49;84.00;100947.94;1733696;82;21099;-54
2021/09/21 01:05:52;;;;;;;99.97;57.65;;;;;;;11.48;83.75;100952.05;1726410;82;21001;-54
2021/09/21 01:08:40;;;;;;;27.62;13.98;;;;;;;11.45;83.66;100953.91;1726329;82;21560;-57
2021/09/21 01:11:10;;;;;;;73.60;42.60;;;;;;;11.44;83.73;100949.92;1712131;82;21297;-57
2021/09/21 01:13:39;;;;;;;74.85;44.08;;;;;;;11.45;84.01;100952.56;1729736;82;21120;-55
2021/09/21 01:16:06;;;;;;;59.95;35.28;;;;;;;11.44;83.45;100952.16;1731085;82;21021;-54
2021/09/21 01:18:36;;;;;;;25.92;15.28;;;;;;;11.39;83.86;100948.77;1743311;82;21160;-57
2021/09/21 01:21:15;;;;;;;24.15;14.40;;;;;;;11.36;84.27;100950.19;1738807;82;21049;-56
2021/09/21 01:24:18;;;;;;;79.12;43.10;;;;;;;11.35;85.06;100963.20;1734926;82;21123;-56
2021/09/21 01:26:46;;;;;;;30.92;18.12;;;;;;;11.33;85.28;100958.36;1721457;81;21197;-56
2021/09/21 01:29:32;;;;;;;26.60;15.85;;;;;;;11.28;85.37;100961.67;1736292;81;21086;-56
2021/09/21 01:32:00;;;;;;;12.58;7.58;;;;;;;11.25;86.18;100961.30;1734615;82;21438;-57
2021/09/21 01:34:38;;;;;;;70.47;41.02;;;;;;;11.27;86.26;100970.20;1727703;82;21591;-57
2021/09/21 01:42:28;;;;;;;6.87;3.58;;;;;;;11.26;85.88;100969.76;1715203;83;21171;-56
2021/09/21 01:47:30;;;;;;;3.45;2.40;;;;;;;11.24;85.63;100977.48;1718587;83;21024;-56
2021/09/21 01:52:54;;;;;;;2.70;1.90;;;;;;;11.22;84.92;100980.67;1709701;83;22317;-56
2021/09/21 02:04:07;;;;;;;3.52;2.10;;;;;;;11.28;85.31;100988.51;1717660;83;21569;-57
2021/09/21 02:06:37;;;;;;;2.77;1.50;;;;;;;11.29;85.62;100980.88;1723922;82;21183;-57
2021/09/21 02:16:56;;;;;;;2.20;1.77;;;;;;;11.31;86.29;100979.01;1712333;83;21061;-56
2021/09/21 02:19:23;;;;;;;2.70;1.52;;;;;;;11.28;86.51;100985.83;1709298;82;21032;-56
2021/09/21 02:30:05;;;;;;;2.27;1.57;;;;;;;11.31;87.84;100977.22;1727607;82;21100;-56
2021/09/21 02:35:47;;;;;;;6.70;1.90;;;;;;;11.29;88.04;100984.90;1721441;82;21075;-56
2021/09/21 02:44:03;;;;;;;2.30;1.50;;;;;;;11.16;88.77;100983.98;1731458;82;21056;-54
2021/09/21 02:46:33;;;;;;;4.22;1.90;;;;;;;11.14;89.13;100993.87;1731253;82;21100;-54
2021/09/21 02:49:00;;;;;;;2.83;2.22;;;;;;;11.17;89.26;100990.22;1722832;82;21064;-54
2021/09/21 02:51:27;;;;;;;5.55;1.77;;;;;;;11.16;88.33;100991.14;1727714;82;21097;-54
2021/09/21 02:53:55;;;;;;;3.50;1.90;;;;;;;11.13;88.29;100997.48;1731591;82;21025;-55
2021/09/21 02:59:24;;;;;;;5.60;2.62;;;;;;;11.05;88.27;101000.90;1726644;81;21132;-55
2021/09/21 03:01:52;;;;;;;4.37;2.12;;;;;;;11.02;88.31;100997.84;1726087;82;21040;-56
2021/09/21 03:04:26;;;;;;;3.00;1.90;;;;;;;11.00;87.77;101001.52;1727727;82;21092;-56
2021/09/21 03:06:59;;;;;;;6.45;2.17;;;;;;;10.97;87.75;101001.62;1727860;81;21060;-56
2021/09/21 03:17:38;;;;;;;3.22;1.80;;;;;;;10.96;87.43;101008.78;1723214;82;21084;-56
2021/09/21 03:20:32;;;;;;;3.47;2.00;;;;;;;10.95;86.75;101015.55;1728914;81;21147;-56
2021/09/21 03:23:22;;;;;;;4.08;2.17;;;;;;;10.89;86.82;101022.84;1706445;83;21507;-57
2021/09/21 03:26:02;;;;;;;2.87;1.70;;;;;;;10.81;86.90;101020.89;1716296;81;21981;-56
2021/09/21 03:28:31;;;;;;;3.65;1.92;;;;;;;10.79;87.60;101024.08;1764719;79;21123;-56
2021/09/21 03:31:03;;;;;;;3.30;2.30;;;;;;;10.79;87.90;101029.89;1767051;81;21096;-56
2021/09/21 03:33:49;;;;;;;2.60;1.85;;;;;;;10.78;88.10;101027.69;1757121;80;21054;-56
2021/09/21 03:36:16;;;;;;;2.70;1.98;;;;;;;10.80;88.58;101031.65;1769444;81;21339;-55
2021/09/21 03:38:43;;;;;;;7.62;2.47;;;;;;;10.82;88.88;101033.37;1769205;79;21130;-56
2021/09/21 03:57:28;;;;;;;10.00;4.50;;;;;;;10.93;88.81;101036.16;1785638;80;21075;-57
2021/09/21 04:12:38;;;;;;;6.95;3.90;;;;;;;10.88;88.56;101046.58;1787875;80;21496;-57
2021/09/21 04:15:07;;;;;;;10.05;3.98;;;;;;;10.88;88.52;101043.89;1786552;78;21476;-56
2021/09/21 04:17:34;;;;;;;7.35;3.47;;;;;;;10.88;88.19;101047.06;1783984;80;21552;-57
2021/09/21 04:20:01;;;;;;;3.85;3.00;;;;;;;10.85;87.95;101057.41;1787692;80;21516;-56
2021/09/21 04:25:09;;;;;;;3.65;2.40;;;;;;;10.79;85.93;101056.71;1785547;80;21028;-56
2021/09/21 04:27:36;;;;;;;2.87;2.20;;;;;;;10.71;85.72;101053.81;1787508;79;21029;-56
2021/09/21 04:32:38;;;;;;;3.17;2.22;;;;;;;10.64;85.09;101055.39;1787595;80;21001;-57
2021/09/21 04:38:02;;;;;;;3.12;2.12;;;;;;;10.65;83.57;101059.38;1747435;79;21409;-57
2021/09/21 04:59:18;;;;;;;5.72;3.67;;;;;;;10.22;81.67;101080.70;1749062;81;21094;-57
2021/09/21 05:01:51;;;;;;;7.62;3.70;;;;;;;10.18;81.78;101090.63;1766175;81;21095;-56
2021/09/21 05:04:35;;;;;;;2.85;2.55;;;;;;;10.14;82.00;101091.63;1769424;81;21063;-57
2021/09/21 05:14:49;;;;;;;;;;;;;;;11.15;78.22;101089.55;1770150;81;21002;-57
2021/09/21 05:17:37;;;;;;;6.50;4.60;;;;;;;11.33;76.21;101089.89;1769877;81;20257;-57
2021/09/21 05:20:07;;;;;;;4.33;2.65;;;;;;;11.36;75.66;101091.61;1769024;81;21119;-56
2021/09/21 05:22:37;;;;;;;3.05;2.40;;;;;;;11.33;74.83;101084.52;1765753;81;21470;-57
2021/09/21 05:30:30;;;;;;;6.25;2.85;;;;;;;11.52;75.86;101083.91;1767704;81;21075;-56
2021/09/21 05:33:14;;;;;;;17.15;9.33;;;;;;;11.63;74.37;101091.16;1766591;81;21103;-56
2021/09/21 05:43:49;;;;;;;11.95;3.75;;;;;;;12.01;70.71;101099.70;1731461;82;20992;-57
2021/09/21 05:51:28;;;;;;;4.55;2.50;;;;;;;11.88;70.33;101109.11;1730632;82;21007;-56
2021/09/21 05:53:57;;;;;;;18.05;2.72;;;;;;;11.69;70.61;101101.69;1696514;83;21360;-57
2021/09/21 05:56:24;;;;;;;4.25;1.70;;;;;;;11.59;71.34;101111.86;1732649;82;21477;-58
2021/09/21 06:04:10;;;;;;;;;;;;;;;11.64;70.28;101106.78;1733326;82;21120;-57
2021/09/21 06:09:18;;;;;;;3.02;1.80;;;;;;;11.70;70.07;101107.47;1727485;81;21113;-56
2021/09/21 06:14:23;;;;;;;7.20;1.90;;;;;;;11.86;68.51;101123.06;1731376;81;21982;-58
2021/09/21 06:16:51;;;;;;;4.37;2.45;;;;;;;11.88;67.87;101127.44;1727044;81;21068;-56
2021/09/21 06:24:38;;;;;;;2.12;1.50;;;;;;;11.97;67.56;101134.30;1725623;82;21057;-57
2021/09/21 06:27:06;;;;;;;3.83;2.00;;;;;;;12.03;66.93;101123.84;1735173;81;21131;-57
2021/09/21 06:29:33;;;;;;;8.88;4.72;;;;;;;12.10;67.39;101127.20;1725486;82;21472;-57
2021/09/21 06:32:00;;;;;;;7.72;5.15;;;;;;;12.16;66.74;101143.11;1725144;81;21064;-57
2021/09/21 06:34:27;;;;;;;6.28;3.17;;;;;;;12.15;66.55;101132.80;1724125;81;21033;-57
2021/09/21 06:36:55;;;;;;;12.88;5.85;;;;;;;12.15;65.56;101123.88;1729984;81;21524;-57
2021/09/21 06:39:24;;;;;;;9.50;4.17;;;;;;;12.14;65.41;101122.13;1728850;81;21928;-57
2021/09/21 06:50:09;;;;;;;7.62;3.67;;;;;;;12.72;64.82;101112.37;1725874;81;21070;-56
2021/09/21 06:52:48;;;;;;;10.05;4.65;;;;;;;12.84;63.82;101135.23;1723568;81;21616;-58
2021/09/21 07:00:38;;;;;;;6.78;2.83;;;;;;;13.02;62.80;101120.66;1745783;81;21128;-57
2021/09/21 07:03:17;;;;;;;3.10;1.47;;;;;;;12.94;62.22;101130.86;1720511;81;21076;-57
2021/09/21 07:05:49;;;;;;;4.78;1.60;;;;;;;12.94;61.86;101134.90;1719487;81;21137;-57
2021/09/21 07:10:45;;;;;;;3.33;1.50;;;;;;;13.13;61.34;101153.40;1709941;83;21569;-56
2021/09/21 07:13:15;;;;;;;4.55;1.67;;;;;;;13.14;59.71;101147.56;1712077;81;21514;-57
2021/09/21 07:15:57;;;;;;;3.77;1.20;;;;;;;12.86;60.37;101156.23;1730713;81;21090;-57
2021/09/21 07:18:24;;;;;;;2.08;1.00;;;;;;;12.61;60.12;101150.43;1722513;81;21092;-57
2021/09/21 07:21:05;;;;;;;1.67;1.00;;;;;;;12.48;60.17;101144.22;1721502;81;21539;-57
2021/09/21 07:23:33;;;;;;;5.20;2.30;;;;;;;12.39;60.78;101142.30;1720459;82;21144;-57
2021/09/21 07:26:03;;;;;;;4.17;1.35;;;;;;;12.42;61.43;101143.97;1718052;83;21041;-56
2021/09/21 07:28:30;;;;;;;5.00;2.10;;;;;;;12.50;61.21;101149.08;1720525;83;21080;-58
2021/09/21 07:44:07;;;;;;;6.50;1.32;;;;;;;12.21;63.08;101150.53;1735560;81;22020;-56
2021/09/21 07:49:38;;;;;;;2.90;1.32;;;;;;;12.30;62.27;101177.11;1741081;81;21565;-54
2021/09/21 07:52:18;;;;;;;1.30;0.90;;;;;;;12.23;62.87;101171.52;1738107;80;20991;-54
2021/09/21 07:54:45;;;;;;;5.47;1.47;;;;;;;12.25;62.80;101176.37;1744825;81;21152;-54
2021/09/21 08:07:29;;;;;;;5.28;1.30;;;;;;;12.14;62.05;101171.84;1755579;80;21465;-53
2021/09/21 08:09:58;;;;;;;3.95;1.07;;;;;;;12.20;62.09;101171.63;1748444;81;21394;-57
2021/09/21 08:12:26;;;;;;;2.70;1.00;;;;;;;12.31;61.45;101176.17;1743141;81;21048;-57
2021/09/21 08:14:53;;;;;;;1.62;1.20;;;;;;;12.41;60.96;101180.76;1738666;80;21944;-57
2021/09/21 08:17:24;;;;;;;2.10;1.05;;;;;;;12.43;60.48;101179.34;1751395;81;21096;-57
2021/09/21 08:19:53;;;;;;;2.25;1.00;;;;;;;12.46;60.45;101168.47;1748631;80;21028;-57
2021/09/21 08:22:20;;;;;;;1.62;1.10;;;;;;;12.50;60.61;101172.83;1746231;80;22333;-57
2021/09/21 08:24:49;;;;;;;2.62;0.85;;;;;;;12.66;59.86;101170.90;1746239;80;21084;-58
2021/09/21 08:32:39;;;;;;;3.10;1.17;;;;;;;12.97;58.61;101172.45;1704317;82;20960;-58
2021/09/21 08:35:09;;;;;;;1.67;0.80;;;;;;;12.86;58.13;101165.65;1730393;81;21101;-58
2021/09/21 08:37:36;;;;;;;2.08;1.17;;;;;;;12.83;58.97;101160.39;1733146;81;21052;-58
2021/09/21 08:40:05;;;;;;;11.48;3.33;;;;;;;12.88;59.41;101157.05;1738756;81;21631;-57
2021/09/21 08:42:34;;;;;;;4.60;2.27;;;;;;;12.99;59.57;101157.12;1744701;81;21061;-58
2021/09/21 08:45:02;;;;;;;3.33;1.20;;;;;;;13.18;58.48;101161.30;1728319;82;21030;-57
2021/09/21 08:47:37;;;;;;;2.83;1.12;;;;;;;13.22;58.00;101150.81;1726993;82;23202;-57
2021/09/21 08:50:10;;;;;;;4.22;1.05;;;;;;;13.29;57.37;101160.88;1706515;82;27195;-58
2021/09/21 08:55:39;;;;;;;1.17;0.90;;;;;;;13.37;56.04;101152.02;1718118;82;21262;-56
2021/09/21 08:58:15;;;;;;;1.65;1.10;;;;;;;13.41;56.44;101145.59;1709631;82;21080;-57
2021/09/21 09:00:44;;;;;;;1.20;0.80;;;;;;;13.44;55.98;101149.53;1769474;79;21751;-57
2021/09/21 09:03:14;;;;;;;0.70;0.70;;;;;;;13.46;56.37;101144.95;1767360;81;20973;-57
2021/09/21 09:06:39;;;;;;;2.80;0.90;;;;;;;13.57;56.59;101147.66;1766073;79;21063;-56
2021/09/21 09:09:13;;;;;;;3.33;1.10;;;;;;;13.67;56.62;101139.63;1765626;79;21029;-58
2021/09/21 09:11:42;;;;;;;1.85;0.93;;;;;;;13.75;55.91;101148.25;1768497;79;21027;-55
2021/09/21 09:17:23;;;;;;;1.12;0.80;;;;;;;13.72;56.10;101157.81;1774395;79;20898;-55
2021/09/21 09:19:50;;;;;;;1.32;0.88;;;;;;;13.66;54.76;101148.64;1766392;79;21104;-57
2021/09/21 09:22:32;;;;;;;3.60;0.90;;;;;;;13.57;54.75;101130.16;1771437;79;21017;-57
2021/09/21 09:28:02;;;;;;;6.80;1.00;;;;;;;13.55;55.00;101146.85;1751775;79;20988;-55
2021/09/21 09:30:29;;;;;;;1.60;0.90;;;;;;;13.60;55.09;101148.91;1762405;79;21109;-55
2021/09/21 09:33:16;;;;;;;2.90;0.90;;;;;;;13.66;54.80;101146.41;1755359;79;21368;-54
2021/09/21 09:35:44;;;;;;;2.15;1.20;;;;;;;13.65;54.93;101137.47;1753347;81;21052;-55
2021/09/21 09:38:25;;;;;;;4.62;1.75;;;;;;;13.64;55.56;101135.71;1758016;81;21713;-54
2021/09/21 09:40:55;;;;;;;3.35;1.00;;;;;;;13.72;55.73;101142.13;1771909;79;21161;-55
2021/09/21 09:43:26;;;;;;;1.80;0.70;;;;;;;13.85;55.25;101137.95;1764121;79;20882;-55
2021/09/21 09:45:56;;;;;;;1.47;0.90;;;;;;;13.97;54.42;101141.95;1763250;79;21119;-54
2021/09/21 09:48:24;;;;;;;1.02;0.80;;;;;;;14.06;54.60;101139.81;1764362;79;20898;-56
2021/09/21 09:51:22;;;;;;;12.30;5.22;;;;;;;14.18;53.70;101144.65;1755474;79;21335;-55
2021/09/21 09:53:48;;;;;;;4.12;1.30;;;;;;;14.17;52.96;101156.38;1766267;81;22191;-55
2021/09/21 09:56:15;;;;;;;3.05;1.10;;;;;;;14.10;53.43;101149.52;1759837;79;20914;-54
2021/09/21 09:58:42;;;;;;;1.77;1.30;;;;;;;14.04;54.02;101143.45;1754892;80;21108;-55
2021/09/21 10:01:40;;;;;;;3.47;1.77;;;;;;;14.10;53.74;101139.59;1766326;79;21107;-55
2021/09/21 10:04:24;;;;;;;3.83;0.95;;;;;;;14.18;53.28;101133.87;1763418;79;21100;-54
2021/09/21 10:06:51;;;;;;;5.42;0.80;;;;;;;14.16;51.68;101141.15;1765185;79;21136;-58
2021/09/21 10:09:20;;;;;;;2.33;0.93;;;;;;;14.15;51.38;101152.88;1764296;79;21053;-58
2021/09/21 10:22:58;;;;;;;6.20;1.90;;;;;;;14.28;51.70;101168.94;1766765;79;21022;-59
2021/09/21 10:28:14;;;;;;;2.98;0.95;;;;;;;14.44;52.15;101156.98;1760807;79;21111;-55
2021/09/21 10:30:57;;;;;;;2.83;1.35;;;;;;;14.59;50.66;101172.95;1765890;79;21043;-57
2021/09/21 10:33:26;;;;;;;2.77;1.10;;;;;;;14.53;50.39;101157.51;1773434;79;21495;-57
2021/09/21 10:35:53;;;;;;;1.02;0.90;;;;;;;14.50;50.92;101138.31;1766781;79;21143;-56
2021/09/21 10:38:21;;;;;;;1.87;1.00;;;;;;;14.59;50.18;101150.02;1773221;79;21057;-57
2021/09/21 10:40:53;;;;;;;5.53;1.10;;;;;;;14.74;50.18;101158.41;1773977;79;21070;-57
2021/09/21 10:43:33;;;;;;;5.45;1.10;;;;;;;14.87;48.95;101170.36;1720599;82;21070;-58
2021/09/21 10:46:16;;;;;;;1.85;1.12;;;;;;;14.82;49.10;101160.26;1733959;82;20979;-57
2021/09/21 10:51:15;;;;;;;1.77;1.07;;;;;;;14.65;49.38;101162.36;1736703;81;21035;-57
2021/09/21 10:53:44;;;;;;;1.85;1.20;;;;;;;14.61;49.44;101169.70;1732102;82;21019;-57
2021/09/21 10:56:14;;;;;;;4.87;1.35;;;;;;;14.66;49.17;101166.81;1733747;82;20979;-57
2021/09/21 10:58:57;;;;;;;5.05;1.07;;;;;;;14.66;49.32;101170.86;1736714;81;21153;-57
2021/09/21 11:01:25;;;;;;;5.42;1.10;;;;;;;14.63;48.96;101162.02;1728926;82;21094;-57
2021/09/21 11:03:54;;;;;;;0.95;0.88;;;;;;;14.54;49.07;101167.36;1739281;80;21417;-58
2021/09/21 11:06:21;;;;;;;1.60;1.00;;;;;;;14.45;48.59;101184.83;1739934;80;21023;-59
2021/09/21 11:11:34;;;;;;;9.20;1.17;;;;;;;14.46;49.47;101170.39;1729851;82;21027;-57
2021/09/21 11:14:07;;;;;;;4.40;1.20;;;;;;;14.61;49.51;101169.70;1735193;80;21564;-57
2021/09/21 11:16:34;;;;;;;7.87;5.62;;;;;;;14.75;48.86;101162.85;1736807;81;21071;-60
2021/09/21 11:19:05;;;;;;;3.75;1.40;;;;;;;14.75;48.36;101169.11;1734037;81;21571;-58
2021/09/21 11:21:33;;;;;;;2.98;1.20;;;;;;;14.70;48.72;101171.58;1730593;81;21040;-58
2021/09/21 11:24:00;;;;;;;3.33;1.15;;;;;;;14.70;48.69;101168.87;1735301;81;21074;-58
2021/09/21 11:26:27;;;;;;;5.08;1.20;;;;;;;14.63;48.73;101178.20;1747000;81;21536;-58
2021/09/21 11:28:57;;;;;;;4.00;1.30;;;;;;;14.54;48.81;101168.25;1734282;80;21019;-56
2021/09/21 11:36:31;;;;;;;3.47;1.77;;;;;;;14.13;49.35;101191.17;1734934;81;21182;-58
2021/09/21 11:41:55;;;;;;;10.13;2.02;;;;;;;13.85;50.49;101213.42;1735833;81;21043;-56
2021/09/21 11:47:06;;;;;;;3.15;1.80;;;;;;;13.68;52.14;101202.00;1730807;80;21029;-57
2021/09/21 11:49:33;;;;;;;6.60;2.40;;;;;;;13.63;52.49;101200.42;1736418;80;21749;-58
2021/09/21 11:57:37;;;;;;;6.78;2.90;;;;;;;13.64;53.28;101201.72;1736221;80;21059;-56
2021/09/21 12:17:41;;;;;;;5.12;2.10;;;;;;;13.74;53.77;101190.95;1749212;80;21052;-54
2021/09/21 12:25:16;;;;;;;3.83;1.90;;;;;;;13.85;53.09;101201.78;1741306;80;21476;-54
2021/09/21 12:27:43;;;;;;;5.55;1.60;;;;;;;13.88;52.83;101198.95;1737213;80;21814;-55
2021/09/21 12:40:59;;;;;;;8.83;2.50;;;;;;;13.82;52.62;101193.34;1741389;80;21169;-54
2021/09/21 12:43:29;;;;;;;3.08;1.57;;;;;;;13.90;52.76;101197.06;1739595;80;21108;-55
2021/09/21 12:46:01;;;;;;;6.05;1.80;;;;;;;13.98;52.05;101193.56;1754026;79;21040;-55
2021/09/21 12:48:36;;;;;;;5.90;1.82;;;;;;;14.04;52.25;101189.28;1767998;79;21116;-54
2021/09/21 12:51:06;;;;;;;4.03;1.35;;;;;;;14.09;51.58;101195.80;1769694;79;21001;-54
2021/09/21 12:53:34;;;;;;;4.53;1.82;;;;;;;14.12;51.45;101196.16;1768222;79;21056;-54
2021/09/21 12:56:10;;;;;;;4.47;1.47;;;;;;;14.12;51.32;101202.41;1744644;80;20910;-54
2021/09/21 13:01:23;;;;;;;5.27;1.57;;;;;;;14.10;51.26;101196.70;1743363;81;21297;-55
2021/09/21 13:03:50;;;;;;;5.85;1.87;;;;;;;14.07;51.13;101190.95;1730515;81;21124;-54
2021/09/21 13:06:17;;;;;;;7.33;1.77;;;;;;;14.04;51.33;101194.68;1731071;81;21118;-54
2021/09/21 13:08:46;;;;;;;11.90;2.45;;;;;;;14.05;51.21;101190.14;1733965;81;21058;-53
2021/09/21 13:11:13;;;;;;;5.30;1.57;;;;;;;14.10;51.20;101196.70;1726304;81;21600;-54
2021/09/21 13:13:42;;;;;;;8.00;1.82;;;;;;;14.13;51.28;101194.73;1732359;81;21056;-54
2021/09/21 13:16:10;;;;;;;7.90;1.92;;;;;;;14.21;50.96;101199.80;1737247;81;21037;-54
2021/09/21 13:18:44;;;;;;;10.82;2.65;;;;;;;14.26;50.87;101199.15;1733470;81;21065;-54
2021/09/21 13:21:13;;;;;;;5.87;2.10;;;;;;;14.29;51.08;101199.01;1722405;81;21089;-54
2021/09/21 13:24:00;;;;;;;7.90;1.85;;;;;;;14.30;50.95;101204.81;1718294;81;20992;-54
2021/09/21 13:26:27;;;;;;;8.95;2.05;;;;;;;14.32;50.90;101181.34;1729901;81;22920;-56
2021/09/21 13:28:55;;;;;;;6.92;2.60;;;;;;;14.38;50.75;101192.34;1733049;81;21427;-55
2021/09/21 13:31:23;;;;;;;6.00;2.20;;;;;;;14.45;50.50;101210.00;1733946;80;21284;-55
2021/09/21 13:33:52;;;;;;;7.87;2.47;;;;;;;14.50;49.99;101196.77;1717207;81;21123;-55
2021/09/21 13:39:09;;;;;;;8.98;3.00;;;;;;;14.48;49.35;101214.39;1737217;80;20943;-54
2021/09/21 13:41:39;;;;;;;7.65;2.83;;;;;;;14.37;49.33;101209.92;1738599;80;21373;-54
2021/09/21 13:44:08;;;;;;;8.73;3.17;;;;;;;14.35;49.31;101214.03;1726506;81;21126;-54
2021/09/21 13:49:16;;;;;;;10.55;3.00;;;;;;;14.25;49.68;101227.03;1731078;81;21113;-54
2021/09/21 14:02:54;;;;;;;5.72;2.70;;;;;;;13.68;50.99;101223.55;1733525;81;21064;-54
2021/09/21 14:05:31;;;;;;;12.98;2.72;;;;;;;13.64;50.68;101244.83;1740733;81;21540;-55
2021/09/21 14:08:05;;;;;;;7.50;3.55;;;;;;;13.62;51.25;101245.37;1738316;80;21518;-55
2021/09/21 14:10:34;;;;;;;10.32;3.58;;;;;;;13.61;51.52;101244.47;1728306;81;21106;-54
2021/09/21 14:13:01;;;;;;;7.00;2.87;;;;;;;13.61;51.17;101247.66;1722497;81;21070;-55
2021/09/21 14:18:14;;;;;;;15.05;4.00;;;;;;;13.56;51.25;101246.48;1727227;81;21939;-54
2021/09/21 14:21:00;;;;;;;6.50;3.37;;;;;;;13.52;51.46;101254.28;1724837;81;20974;-55
2021/09/21 14:26:16;;;;;;;14.53;3.80;;;;;;;13.40;52.52;101255.61;1734249;81;20936;-55
2021/09/21 14:28:45;;;;;;;13.05;4.30;;;;;;;13.40;52.80;101260.99;1736964;80;20881;-54
2021/09/21 14:31:14;;;;;;;11.03;4.03;;;;;;;13.43;52.92;101266.29;1723972;81;20988;-55
2021/09/21 14:33:44;;;;;;;10.38;4.65;;;;;;;13.46;52.88;101268.86;1731044;81;20973;-58
2021/09/21 14:36:12;;;;;;;11.18;4.53;;;;;;;13.45;52.63;101273.84;1723288;82;21119;-57
2021/09/21 14:38:44;;;;;;;13.78;4.70;;;;;;;13.38;52.81;101268.70;1724367;81;21586;-56
2021/09/21 14:41:12;;;;;;;7.33;4.70;;;;;;;13.26;53.17;101267.37;1720346;81;20962;-57
2021/09/21 14:43:49;;;;;;;11.00;4.60;;;;;;;13.16;53.62;101274.45;1732155;80;20949;-57
2021/09/21 14:51:46;;;;;;;6.37;4.72;;;;;;;13.06;54.20;101278.89;1746612;80;20899;-57
2021/09/21 14:56:44;;;;;;;7.03;4.60;;;;;;;12.98;53.79;101277.83;1740294;80;20941;-57
2021/09/21 14:59:12;;;;;;;5.42;4.28;;;;;;;12.92;53.87;101269.95;1748349;80;21339;-58
2021/09/21 15:04:20;;;;;;;13.88;5.00;;;;;;;12.76;54.10;101271.88;1710892;82;21075;-59
2021/09/21 15:06:48;;;;;;;15.20;4.67;;;;;;;12.72;54.84;101270.23;1770690;79;20882;-56
2021/09/21 15:09:17;;;;;;;10.55;4.90;;;;;;;12.70;54.92;101273.42;1781669;79;21012;-56
2021/09/21 15:11:44;;;;;;;9.23;4.70;;;;;;;12.70;54.98;101285.53;1774656;78;21098;-56
2021/09/21 15:14:17;;;;;;;11.20;4.78;;;;;;;12.70;55.24;101281.49;1786580;79;21080;-57
2021/09/21 15:16:44;;;;;;;9.30;5.10;;;;;;;12.70;55.38;101282.39;1780945;79;21012;-58
2021/09/21 15:19:13;;;;;;;13.43;4.25;;;;;;;12.69;54.92;101286.02;1774583;79;21025;-58
2021/09/21 15:21:41;;;;;;;12.15;4.60;;;;;;;12.67;55.08;101288.33;1783723;78;21091;-58
2021/09/21 15:26:59;;;;;;;8.10;4.65;;;;;;;12.64;55.22;101276.34;1788459;79;21024;-57
2021/09/21 15:29:28;;;;;;;12.60;4.62;;;;;;;12.64;54.96;101290.69;1781791;78;20997;-57
2021/09/21 15:31:55;;;;;;;13.18;4.42;;;;;;;12.59;55.00;101290.83;1769528;80;21064;-58
2021/09/21 15:34:25;;;;;;;11.18;4.50;;;;;;;12.56;55.21;101285.56;1785633;79;21104;-57
2021/09/21 15:36:56;;;;;;;6.62;4.67;;;;;;;12.53;55.37;101288.37;1779594;79;21080;-57
2021/09/21 15:39:23;;;;;;;10.35;4.00;;;;;;;12.52;55.60;101285.27;1779348;79;21076;-57
2021/09/21 15:41:59;;;;;;;9.35;4.22;;;;;;;12.52;55.72;101283.02;1780919;79;21384;-56
2021/09/21 15:44:28;;;;;;;12.73;4.87;;;;;;;12.52;55.91;101281.23;1785398;79;21521;-57
2021/09/21 15:46:56;;;;;;;10.00;5.00;;;;;;;12.52;56.09;101285.72;1786089;77;21060;-56
2021/09/21 15:49:24;;;;;;;6.25;3.92;;;;;;;12.49;55.91;101293.45;1769961;79;21020;-57
2021/09/21 15:51:53;;;;;;;10.70;4.35;;;;;;;12.46;55.60;101294.42;1717437;80;21068;-58
2021/09/21 15:57:08;;;;;;;10.30;4.42;;;;;;;12.43;56.19;101305.73;1752636;81;21048;-56
2021/09/21 16:00:00;;;;;;;10.32;4.60;;;;;;;12.42;56.44;101312.05;1768334;79;21116;-58
2021/09/21 16:02:28;;;;;;;10.78;4.83;;;;;;;12.43;56.60;101303.05;1761871;79;21060;-56
2021/09/21 16:05:21;;;;;;;10.80;4.62;;;;;;;12.45;56.66;101299.83;1767912;79;21473;-57
2021/09/21 16:07:48;;;;;;;16.60;5.58;;;;;;;12.46;56.65;101309.20;1777668;79;21025;-57
2021/09/21 16:10:17;;;;;;;5.33;3.98;;;;;;;12.45;56.56;101311.94;1787897;79;21035;-57
2021/09/21 16:12:46;;;;;;;9.08;4.58;;;;;;;12.43;56.63;101311.11;1762981;79;20992;-56
2021/09/21 16:15:26;;;;;;;8.68;4.40;;;;;;;12.44;56.61;101313.77;1780708;79;21078;-58
2021/09/21 16:17:55;;;;;;;10.53;4.95;;;;;;;12.42;56.80;101310.70;1766805;79;21057;-57
2021/09/21 16:20:25;;;;;;;12.88;4.80;;;;;;;12.41;56.81;101306.25;1769513;79;20957;-57
2021/09/21 16:22:57;;;;;;;12.07;4.58;;;;;;;12.41;56.87;101303.56;1775647;79;21441;-57
2021/09/21 16:28:11;;;;;;;7.58;4.70;;;;;;;12.36;56.98;101306.40;1778105;79;20926;-57
2021/09/21 16:30:38;;;;;;;8.28;4.42;;;;;;;12.32;57.20;101306.98;1771244;79;21298;-58
2021/09/21 16:33:07;;;;;;;13.60;4.37;;;;;;;12.28;57.44;101313.41;1792351;79;21472;-57
2021/09/21 16:35:39;;;;;;;11.43;5.00;;;;;;;12.25;57.54;101313.48;1763380;79;21592;-57
2021/09/21 16:38:17;;;;;;;6.83;4.50;;;;;;;12.23;57.82;101315.34;1776718;79;20938;-57
2021/09/21 16:40:49;;;;;;;10.20;4.37;;;;;;;12.21;57.92;101314.52;1770121;78;21085;-58
2021/09/21 16:43:17;;;;;;;10.05;4.75;;;;;;;12.21;58.19;101310.48;1775247;79;21802;-57
2021/09/21 16:45:44;;;;;;;10.23;4.72;;;;;;;12.21;58.32;101314.52;1761434;79;21117;-57
2021/09/21 16:48:13;;;;;;;8.78;4.65;;;;;;;12.20;58.28;101326.20;1762049;78;21717;-58
2021/09/21 16:50:41;;;;;;;9.18;4.45;;;;;;;12.17;58.27;101330.34;1765480;79;21064;-57
2021/09/21 16:53:09;;;;;;;11.90;4.67;;;;;;;12.14;58.12;101338.50;1776116;79;21041;-57
2021/09/21 16:55:36;;;;;;;9.10;5.12;;;;;;;12.12;58.10;101341.70;1756561;79;21570;-57
2021/09/21 16:58:04;;;;;;;11.10;4.70;;;;;;;12.05;58.10;101342.36;1775399;79;21028;-57
2021/09/21 17:00:34;;;;;;;8.45;4.33;;;;;;;12.01;58.12;101342.05;1786286;79;21090;-57
2021/09/21 17:03:09;;;;;;;14.15;5.10;;;;;;;11.97;58.22;101346.59;1761697;79;21016;-57
2021/09/21 17:05:35;;;;;;;11.97;5.03;;;;;;;11.94;58.09;101353.89;1754312;79;21774;-57
2021/09/21 17:08:05;;;;;;;14.93;4.83;;;;;;;11.89;58.21;101359.41;1728293;82;21619;-53
2021/09/21 17:10:47;;;;;;;9.63;4.55;;;;;;;11.88;58.29;101354.96;1718472;80;21885;-53
2021/09/21 17:23:48;;;;;;;13.18;5.00;;;;;;;11.85;58.27;101357.75;1718555;82;21113;-57
2021/09/21 17:31:49;;;;;;;15.15;5.90;;;;;;;11.87;57.78;101363.47;1687935;82;22234;-54
2021/09/21 17:34:18;;;;;;;13.13;5.03;;;;;;;11.87;57.51;101365.30;1734089;82;21068;-55
2021/09/21 17:36:45;;;;;;;11.73;4.97;;;;;;;11.85;57.49;101360.43;1694477;82;21501;-55
2021/09/21 17:39:15;;;;;;;7.85;4.25;;;;;;;11.85;57.42;101361.30;1722095;82;21072;-57
2021/09/21 17:44:17;;;;;;;13.98;5.10;;;;;;;11.89;57.16;101371.50;1715044;81;21017;-54
2021/09/21 17:46:45;;;;;;;9.45;4.90;;;;;;;11.88;57.10;101367.91;1736941;81;21099;-55